sensor_id;sensor_type;location;lat;lon;timestamp;P1;durP1;ratioP1;P2;durP2;ratioP2
42668;SDS011;29384;42.028;21.388;2022-12-18T00:04:25;10.20;;;4.03;;
42668;SDS011;29384;42.028;21.388;2022-12-18T00:06:51;5.07;;;4.05;;
42668;SDS011;29384;42.028;21.388;2022-12-18T00:09:16;3.88;;;3.63;;
42668;SDS011;29384;42.028;21.388;2022-12-18T00:11:41;4.07;;;3.78;;
42668;SDS011;29384;42.028;21.388;2022-12-18T00:14:08;5.65;;;4.70;;
42668;SDS011;29384;42.028;21.388;2022-12-18T00:19:36;8.20;;;4.47;;
42668;SDS011;29384;42.028;21.388;2022-12-18T00:22:01;7.88;;;4.68;;
42668;SDS011;29384;42.028;21.388;2022-12-18T00:24:27;8.43;;;3.85;;
42668;SDS011;29384;42.028;21.388;2022-12-18T00:26:52;4.05;;;3.65;;
42668;SDS011;29384;42.028;21.388;2022-12-18T00:29:17;3.63;;;3.33;;
42668;SDS011;29384;42.028;21.388;2022-12-18T00:34:45;22.30;;;4.68;;
42668;SDS011;29384;42.028;21.388;2022-12-18T00:37:10;4.50;;;4.00;;
42668;SDS011;29384;42.028;21.388;2022-12-18T00:39:36;6.47;;;4.57;;
42668;SDS011;29384;42.028;21.388;2022-12-18T00:42:01;3.97;;;3.67;;
42668;SDS011;29384;42.028;21.388;2022-12-18T00:44:45;8.02;;;3.67;;
42668;SDS011;29384;42.028;21.388;2022-12-18T00:47:10;4.13;;;3.80;;
42668;SDS011;29384;42.028;21.388;2022-12-18T00:49:35;7.00;;;4.50;;
42668;SDS011;29384;42.028;21.388;2022-12-18T00:52:00;4.47;;;4.00;;
42668;SDS011;29384;42.028;21.388;2022-12-18T00:54:26;4.00;;;3.70;;
42668;SDS011;29384;42.028;21.388;2022-12-18T00:56:51;4.28;;;3.83;;
42668;SDS011;29384;42.028;21.388;2022-12-18T00:59:17;6.05;;;4.53;;
42668;SDS011;29384;42.028;21.388;2022-12-18T01:04:45;4.75;;;4.35;;
42668;SDS011;29384;42.028;21.388;2022-12-18T01:07:11;4.03;;;3.63;;
42668;SDS011;29384;42.028;21.388;2022-12-18T01:09:36;3.30;;;3.10;;
42668;SDS011;29384;42.028;21.388;2022-12-18T01:12:01;4.38;;;4.07;;
42668;SDS011;29384;42.028;21.388;2022-12-18T01:14:27;6.20;;;3.80;;
42668;SDS011;29384;42.028;21.388;2022-12-18T01:19:54;10.60;;;4.05;;
42668;SDS011;29384;42.028;21.388;2022-12-18T01:22:20;3.45;;;3.25;;
42668;SDS011;29384;42.028;21.388;2022-12-18T01:24:45;7.72;;;4.07;;
42668;SDS011;29384;42.028;21.388;2022-12-18T01:27:10;4.78;;;4.38;;
42668;SDS011;29384;42.028;21.388;2022-12-18T01:29:35;5.57;;;4.68;;
42668;SDS011;29384;42.028;21.388;2022-12-18T01:35:03;4.40;;;3.42;;
42668;SDS011;29384;42.028;21.388;2022-12-18T01:37:29;5.60;;;3.08;;
42668;SDS011;29384;42.028;21.388;2022-12-18T01:39:54;3.85;;;3.55;;
42668;SDS011;29384;42.028;21.388;2022-12-18T01:42:20;11.85;;;3.65;;
42668;SDS011;29384;42.028;21.388;2022-12-18T01:49:49;4.32;;;3.92;;
42668;SDS011;29384;42.028;21.388;2022-12-18T01:52:14;2.92;;;2.65;;
42668;SDS011;29384;42.028;21.388;2022-12-18T01:54:40;5.55;;;4.35;;
42668;SDS011;29384;42.028;21.388;2022-12-18T01:57:05;13.75;;;3.60;;
42668;SDS011;29384;42.028;21.388;2022-12-18T01:59:31;3.53;;;3.33;;
42668;SDS011;29384;42.028;21.388;2022-12-18T02:05:00;6.03;;;3.15;;
42668;SDS011;29384;42.028;21.388;2022-12-18T02:09:56;3.80;;;3.50;;
42668;SDS011;29384;42.028;21.388;2022-12-18T02:12:24;3.38;;;3.17;;
42668;SDS011;29384;42.028;21.388;2022-12-18T02:14:59;3.20;;;3.00;;
42668;SDS011;29384;42.028;21.388;2022-12-18T02:17:30;2.80;;;2.70;;
42668;SDS011;29384;42.028;21.388;2022-12-18T02:25:23;5.95;;;3.17;;
42668;SDS011;29384;42.028;21.388;2022-12-18T02:27:50;3.72;;;2.70;;
42668;SDS011;29384;42.028;21.388;2022-12-18T02:30:17;3.88;;;3.30;;
42668;SDS011;29384;42.028;21.388;2022-12-18T02:32:47;7.15;;;3.40;;
42668;SDS011;29384;42.028;21.388;2022-12-18T02:35:15;4.85;;;3.00;;
42668;SDS011;29384;42.028;21.388;2022-12-18T02:37:42;3.28;;;3.08;;
42668;SDS011;29384;42.028;21.388;2022-12-18T02:40:08;5.45;;;3.08;;
42668;SDS011;29384;42.028;21.388;2022-12-18T02:42:34;2.58;;;2.40;;
42668;SDS011;29384;42.028;21.388;2022-12-18T02:44:59;3.33;;;2.95;;
42668;SDS011;29384;42.028;21.388;2022-12-18T02:47:27;2.88;;;2.75;;
42668;SDS011;29384;42.028;21.388;2022-12-18T02:52:33;3.30;;;3.00;;
42668;SDS011;29384;42.028;21.388;2022-12-18T03:06:18;2.55;;;2.30;;
42668;SDS011;29384;42.028;21.388;2022-12-18T03:08:47;2.88;;;2.72;;
42668;SDS011;29384;42.028;21.388;2022-12-18T03:11:14;3.20;;;2.92;;
42668;SDS011;29384;42.028;21.388;2022-12-18T03:16:06;2.13;;;1.92;;
42668;SDS011;29384;42.028;21.388;2022-12-18T03:18:43;2.55;;;2.42;;
42668;SDS011;29384;42.028;21.388;2022-12-18T03:21:11;4.13;;;2.70;;
42668;SDS011;29384;42.028;21.388;2022-12-18T03:23:42;4.10;;;2.88;;
42668;SDS011;29384;42.028;21.388;2022-12-18T03:26:10;2.28;;;2.17;;
42668;SDS011;29384;42.028;21.388;2022-12-18T03:28:38;2.85;;;2.70;;
42668;SDS011;29384;42.028;21.388;2022-12-18T03:31:04;1.73;;;1.63;;
42668;SDS011;29384;42.028;21.388;2022-12-18T03:33:40;6.03;;;2.97;;
42668;SDS011;29384;42.028;21.388;2022-12-18T03:36:08;2.88;;;2.60;;
42668;SDS011;29384;42.028;21.388;2022-12-18T03:38:34;2.53;;;2.33;;
42668;SDS011;29384;42.028;21.388;2022-12-18T03:41:03;3.80;;;1.98;;
42668;SDS011;29384;42.028;21.388;2022-12-18T03:46:23;3.60;;;3.30;;
42668;SDS011;29384;42.028;21.388;2022-12-18T03:48:51;3.05;;;2.85;;
42668;SDS011;29384;42.028;21.388;2022-12-18T03:51:19;3.78;;;2.70;;
42668;SDS011;29384;42.028;21.388;2022-12-18T03:56:15;3.20;;;2.58;;
42668;SDS011;29384;42.028;21.388;2022-12-18T03:58:41;3.25;;;2.45;;
42668;SDS011;29384;42.028;21.388;2022-12-18T04:01:07;3.08;;;2.33;;
42668;SDS011;29384;42.028;21.388;2022-12-18T04:03:33;4.35;;;2.47;;
42668;SDS011;29384;42.028;21.388;2022-12-18T04:05:59;3.58;;;1.80;;
42668;SDS011;29384;42.028;21.388;2022-12-18T04:08:25;2.05;;;1.95;;
42668;SDS011;29384;42.028;21.388;2022-12-18T04:10:50;2.30;;;2.15;;
42668;SDS011;29384;42.028;21.388;2022-12-18T04:13:29;2.25;;;1.73;;
42668;SDS011;29384;42.028;21.388;2022-12-18T04:15:54;2.13;;;1.92;;
42668;SDS011;29384;42.028;21.388;2022-12-18T04:18:19;2.25;;;2.15;;
42668;SDS011;29384;42.028;21.388;2022-12-18T04:20:45;2.25;;;2.15;;
42668;SDS011;29384;42.028;21.388;2022-12-18T04:23:10;2.47;;;2.38;;
42668;SDS011;29384;42.028;21.388;2022-12-18T04:25:35;4.63;;;2.40;;
42668;SDS011;29384;42.028;21.388;2022-12-18T04:28:01;5.03;;;2.08;;
42668;SDS011;29384;42.028;21.388;2022-12-18T04:30:26;2.08;;;2.05;;
42668;SDS011;29384;42.028;21.388;2022-12-18T04:32:51;2.53;;;2.33;;
42668;SDS011;29384;42.028;21.388;2022-12-18T04:35:16;1.98;;;1.88;;
42668;SDS011;29384;42.028;21.388;2022-12-18T04:37:42;2.80;;;2.10;;
42668;SDS011;29384;42.028;21.388;2022-12-18T04:40:07;2.70;;;2.50;;
42668;SDS011;29384;42.028;21.388;2022-12-18T04:42:33;2.50;;;2.33;;
42668;SDS011;29384;42.028;21.388;2022-12-18T04:44:58;2.03;;;1.90;;
42668;SDS011;29384;42.028;21.388;2022-12-18T04:50:26;3.05;;;2.60;;
42668;SDS011;29384;42.028;21.388;2022-12-18T04:52:51;3.25;;;3.03;;
42668;SDS011;29384;42.028;21.388;2022-12-18T04:55:17;2.13;;;1.95;;
42668;SDS011;29384;42.028;21.388;2022-12-18T04:57:42;2.42;;;2.33;;
42668;SDS011;29384;42.028;21.388;2022-12-18T05:00:08;2.85;;;2.65;;
42668;SDS011;29384;42.028;21.388;2022-12-18T05:05:36;2.50;;;2.40;;
42668;SDS011;29384;42.028;21.388;2022-12-18T05:08:01;2.97;;;2.78;;
42668;SDS011;29384;42.028;21.388;2022-12-18T05:10:26;3.53;;;3.20;;
42668;SDS011;29384;42.028;21.388;2022-12-18T05:12:52;2.83;;;2.72;;
42668;SDS011;29384;42.028;21.388;2022-12-18T05:15:23;3.22;;;2.92;;
42668;SDS011;29384;42.028;21.388;2022-12-18T05:20:51;3.30;;;3.05;;
42668;SDS011;29384;42.028;21.388;2022-12-18T05:23:16;2.60;;;2.40;;
42668;SDS011;29384;42.028;21.388;2022-12-18T05:25:42;3.65;;;3.35;;
42668;SDS011;29384;42.028;21.388;2022-12-18T05:28:07;3.53;;;3.22;;
42668;SDS011;29384;42.028;21.388;2022-12-18T05:30:32;3.90;;;3.10;;
42668;SDS011;29384;42.028;21.388;2022-12-18T05:36:01;6.47;;;3.30;;
42668;SDS011;29384;42.028;21.388;2022-12-18T05:38:26;4.00;;;2.55;;
42668;SDS011;29384;42.028;21.388;2022-12-18T05:40:52;4.00;;;2.80;;
42668;SDS011;29384;42.028;21.388;2022-12-18T05:43:18;2.95;;;2.75;;
42668;SDS011;29384;42.028;21.388;2022-12-18T05:45:44;3.90;;;3.63;;
42668;SDS011;29384;42.028;21.388;2022-12-18T05:51:14;3.15;;;2.95;;
42668;SDS011;29384;42.028;21.388;2022-12-18T05:53:39;4.43;;;3.85;;
42668;SDS011;29384;42.028;21.388;2022-12-18T05:56:06;4.90;;;3.38;;
42668;SDS011;29384;42.028;21.388;2022-12-18T05:58:32;4.45;;;4.18;;
42668;SDS011;29384;42.028;21.388;2022-12-18T06:00:57;4.35;;;3.88;;
42668;SDS011;29384;42.028;21.388;2022-12-18T06:03:23;4.15;;;3.75;;
42668;SDS011;29384;42.028;21.388;2022-12-18T06:05:48;5.03;;;4.10;;
42668;SDS011;29384;42.028;21.388;2022-12-18T06:08:14;4.85;;;4.28;;
42668;SDS011;29384;42.028;21.388;2022-12-18T06:10:39;3.78;;;3.47;;
42668;SDS011;29384;42.028;21.388;2022-12-18T06:13:05;4.15;;;3.83;;
42668;SDS011;29384;42.028;21.388;2022-12-18T06:15:31;4.53;;;4.22;;
42668;SDS011;29384;42.028;21.388;2022-12-18T06:20:59;6.03;;;4.65;;
42668;SDS011;29384;42.028;21.388;2022-12-18T06:23:25;4.05;;;3.75;;
42668;SDS011;29384;42.028;21.388;2022-12-18T06:25:50;6.10;;;5.28;;
42668;SDS011;29384;42.028;21.388;2022-12-18T06:28:16;4.70;;;4.28;;
42668;SDS011;29384;42.028;21.388;2022-12-18T06:30:44;6.50;;;3.95;;
42668;SDS011;29384;42.028;21.388;2022-12-18T06:36:12;5.93;;;4.57;;
42668;SDS011;29384;42.028;21.388;2022-12-18T06:38:40;5.35;;;4.85;;
42668;SDS011;29384;42.028;21.388;2022-12-18T06:41:06;4.38;;;4.07;;
42668;SDS011;29384;42.028;21.388;2022-12-18T06:43:31;5.22;;;4.65;;
42668;SDS011;29384;42.028;21.388;2022-12-18T06:46:00;5.32;;;4.47;;
42668;SDS011;29384;42.028;21.388;2022-12-18T06:51:28;8.05;;;4.68;;
42668;SDS011;29384;42.028;21.388;2022-12-18T06:53:53;6.35;;;5.07;;
42668;SDS011;29384;42.028;21.388;2022-12-18T06:56:18;7.20;;;5.32;;
42668;SDS011;29384;42.028;21.388;2022-12-18T06:58:43;6.82;;;4.97;;
42668;SDS011;29384;42.028;21.388;2022-12-18T07:01:10;6.68;;;4.70;;
42668;SDS011;29384;42.028;21.388;2022-12-18T07:03:35;6.22;;;5.45;;
42668;SDS011;29384;42.028;21.388;2022-12-18T07:06:01;6.07;;;5.05;;
42668;SDS011;29384;42.028;21.388;2022-12-18T07:08:26;6.40;;;5.78;;
42668;SDS011;29384;42.028;21.388;2022-12-18T07:10:53;8.35;;;5.38;;
42668;SDS011;29384;42.028;21.388;2022-12-18T07:13:19;6.28;;;5.43;;
42668;SDS011;29384;42.028;21.388;2022-12-18T07:15:44;5.25;;;4.70;;
42668;SDS011;29384;42.028;21.388;2022-12-18T07:21:16;14.18;;;5.45;;
42668;SDS011;29384;42.028;21.388;2022-12-18T07:23:41;10.52;;;6.65;;
42668;SDS011;29384;42.028;21.388;2022-12-18T07:26:13;6.25;;;5.65;;
42668;SDS011;29384;42.028;21.388;2022-12-18T07:28:39;7.72;;;5.40;;
42668;SDS011;29384;42.028;21.388;2022-12-18T07:31:06;6.28;;;5.50;;
42668;SDS011;29384;42.028;21.388;2022-12-18T07:36:34;14.30;;;5.60;;
42668;SDS011;29384;42.028;21.388;2022-12-18T07:38:59;6.93;;;6.03;;
42668;SDS011;29384;42.028;21.388;2022-12-18T07:41:24;10.57;;;6.72;;
42668;SDS011;29384;42.028;21.388;2022-12-18T07:43:50;18.90;;;6.35;;
42668;SDS011;29384;42.028;21.388;2022-12-18T07:46:15;8.38;;;5.97;;
42668;SDS011;29384;42.028;21.388;2022-12-18T07:51:43;9.27;;;6.18;;
42668;SDS011;29384;42.028;21.388;2022-12-18T07:54:11;6.32;;;5.70;;
42668;SDS011;29384;42.028;21.388;2022-12-18T07:56:36;8.35;;;5.18;;
42668;SDS011;29384;42.028;21.388;2022-12-18T07:59:01;6.60;;;5.32;;
42668;SDS011;29384;42.028;21.388;2022-12-18T08:01:27;6.25;;;5.68;;
42668;SDS011;29384;42.028;21.388;2022-12-18T08:03:53;9.07;;;5.40;;
42668;SDS011;29384;42.028;21.388;2022-12-18T08:06:18;10.00;;;6.43;;
42668;SDS011;29384;42.028;21.388;2022-12-18T08:08:44;8.05;;;6.47;;
42668;SDS011;29384;42.028;21.388;2022-12-18T08:11:09;6.22;;;5.63;;
42668;SDS011;29384;42.028;21.388;2022-12-18T08:13:34;9.40;;;5.90;;
42668;SDS011;29384;42.028;21.388;2022-12-18T08:16:03;9.05;;;6.50;;
42668;SDS011;29384;42.028;21.388;2022-12-18T08:21:32;7.30;;;6.53;;
42668;SDS011;29384;42.028;21.388;2022-12-18T08:23:58;12.00;;;6.47;;
42668;SDS011;29384;42.028;21.388;2022-12-18T08:26:25;6.15;;;5.05;;
42668;SDS011;29384;42.028;21.388;2022-12-18T08:28:50;9.52;;;6.47;;
42668;SDS011;29384;42.028;21.388;2022-12-18T08:31:16;7.60;;;6.18;;
42668;SDS011;29384;42.028;21.388;2022-12-18T08:36:44;7.85;;;6.28;;
42668;SDS011;29384;42.028;21.388;2022-12-18T08:39:09;7.35;;;6.63;;
42668;SDS011;29384;42.028;21.388;2022-12-18T08:41:35;14.05;;;7.60;;
42668;SDS011;29384;42.028;21.388;2022-12-18T08:44:00;12.35;;;7.53;;
42668;SDS011;29384;42.028;21.388;2022-12-18T08:46:51;7.80;;;6.00;;
42668;SDS011;29384;42.028;21.388;2022-12-18T08:49:17;13.43;;;7.22;;
42668;SDS011;29384;42.028;21.388;2022-12-18T08:51:42;12.13;;;6.97;;
42668;SDS011;29384;42.028;21.388;2022-12-18T08:54:12;6.32;;;5.82;;
42668;SDS011;29384;42.028;21.388;2022-12-18T08:56:38;11.52;;;7.15;;
42668;SDS011;29384;42.028;21.388;2022-12-18T08:59:04;11.93;;;6.90;;
42668;SDS011;29384;42.028;21.388;2022-12-18T09:01:29;9.93;;;6.53;;
42668;SDS011;29384;42.028;21.388;2022-12-18T09:06:57;13.27;;;6.80;;
42668;SDS011;29384;42.028;21.388;2022-12-18T09:09:23;13.93;;;7.28;;
42668;SDS011;29384;42.028;21.388;2022-12-18T09:11:48;11.88;;;5.72;;
42668;SDS011;29384;42.028;21.388;2022-12-18T09:14:13;10.18;;;6.43;;
42668;SDS011;29384;42.028;21.388;2022-12-18T09:16:40;10.43;;;7.22;;
42668;SDS011;29384;42.028;21.388;2022-12-18T09:22:08;9.63;;;6.55;;
42668;SDS011;29384;42.028;21.388;2022-12-18T09:24:34;7.65;;;6.50;;
42668;SDS011;29384;42.028;21.388;2022-12-18T09:26:59;12.85;;;7.07;;
42668;SDS011;29384;42.028;21.388;2022-12-18T09:29:25;14.70;;;7.00;;
42668;SDS011;29384;42.028;21.388;2022-12-18T09:31:50;24.05;;;8.90;;
42668;SDS011;29384;42.028;21.388;2022-12-18T09:34:15;8.57;;;7.30;;
42668;SDS011;29384;42.028;21.388;2022-12-18T09:36:41;10.00;;;7.82;;
42668;SDS011;29384;42.028;21.388;2022-12-18T09:39:07;13.57;;;7.15;;
42668;SDS011;29384;42.028;21.388;2022-12-18T09:43:58;14.18;;;7.93;;
42668;SDS011;29384;42.028;21.388;2022-12-18T09:46:31;8.95;;;7.18;;
42668;SDS011;29384;42.028;21.388;2022-12-18T09:52:02;17.70;;;10.18;;
42668;SDS011;29384;42.028;21.388;2022-12-18T09:54:37;12.85;;;8.95;;
42668;SDS011;29384;42.028;21.388;2022-12-18T09:57:03;15.05;;;9.07;;
42668;SDS011;29384;42.028;21.388;2022-12-18T09:59:34;15.02;;;7.80;;
42668;SDS011;29384;42.028;21.388;2022-12-18T10:02:07;13.63;;;8.57;;
42668;SDS011;29384;42.028;21.388;2022-12-18T10:04:36;13.82;;;9.02;;
42668;SDS011;29384;42.028;21.388;2022-12-18T10:07:14;12.63;;;8.15;;
42668;SDS011;29384;42.028;21.388;2022-12-18T10:23:19;13.85;;;7.63;;
42668;SDS011;29384;42.028;21.388;2022-12-18T10:28:15;9.25;;;5.97;;
42668;SDS011;29384;42.028;21.388;2022-12-18T10:30:41;14.57;;;7.32;;
42668;SDS011;29384;42.028;21.388;2022-12-18T10:33:09;6.13;;;5.30;;
42668;SDS011;29384;42.028;21.388;2022-12-18T10:35:35;6.95;;;6.07;;
42668;SDS011;29384;42.028;21.388;2022-12-18T10:40:29;10.73;;;6.00;;
42668;SDS011;29384;42.028;21.388;2022-12-18T10:43:13;8.50;;;5.55;;
42668;SDS011;29384;42.028;21.388;2022-12-18T10:45:39;9.10;;;7.22;;
42668;SDS011;29384;42.028;21.388;2022-12-18T10:48:05;8.18;;;6.18;;
42668;SDS011;29384;42.028;21.388;2022-12-18T10:50:42;7.53;;;5.82;;
42668;SDS011;29384;42.028;21.388;2022-12-18T10:53:13;11.00;;;5.95;;
42668;SDS011;29384;42.028;21.388;2022-12-18T10:55:44;7.97;;;6.95;;
42668;SDS011;29384;42.028;21.388;2022-12-18T10:58:21;7.93;;;6.45;;
42668;SDS011;29384;42.028;21.388;2022-12-18T11:08:28;8.30;;;6.95;;
42668;SDS011;29384;42.028;21.388;2022-12-18T11:10:53;9.48;;;6.63;;
42668;SDS011;29384;42.028;21.388;2022-12-18T11:13:20;7.95;;;6.90;;
42668;SDS011;29384;42.028;21.388;2022-12-18T11:15:45;13.35;;;7.00;;
42668;SDS011;29384;42.028;21.388;2022-12-18T11:20:52;10.00;;;6.53;;
42668;SDS011;29384;42.028;21.388;2022-12-18T11:23:18;10.37;;;7.37;;
42668;SDS011;29384;42.028;21.388;2022-12-18T11:25:55;12.45;;;7.45;;
42668;SDS011;29384;42.028;21.388;2022-12-18T11:28:38;25.48;;;8.20;;
42668;SDS011;29384;42.028;21.388;2022-12-18T11:33:50;10.27;;;7.45;;
42668;SDS011;29384;42.028;21.388;2022-12-18T11:36:17;12.40;;;7.82;;
42668;SDS011;29384;42.028;21.388;2022-12-18T11:38:43;11.20;;;7.63;;
42668;SDS011;29384;42.028;21.388;2022-12-18T11:43:54;13.52;;;8.32;;
42668;SDS011;29384;42.028;21.388;2022-12-18T11:46:34;14.05;;;8.43;;
42668;SDS011;29384;42.028;21.388;2022-12-18T11:54:00;13.18;;;9.50;;
42668;SDS011;29384;42.028;21.388;2022-12-18T11:56:36;18.27;;;7.80;;
42668;SDS011;29384;42.028;21.388;2022-12-18T12:16:44;13.82;;;8.50;;
42668;SDS011;29384;42.028;21.388;2022-12-18T12:21:44;19.20;;;9.77;;
42668;SDS011;29384;42.028;21.388;2022-12-18T12:26:54;18.50;;;9.32;;
42668;SDS011;29384;42.028;21.388;2022-12-18T12:32:06;16.83;;;9.93;;
42668;SDS011;29384;42.028;21.388;2022-12-18T12:37:07;17.80;;;8.95;;
42668;SDS011;29384;42.028;21.388;2022-12-18T12:39:37;17.13;;;9.10;;
42668;SDS011;29384;42.028;21.388;2022-12-18T12:42:04;18.08;;;9.20;;
42668;SDS011;29384;42.028;21.388;2022-12-18T12:44:54;13.52;;;9.30;;
42668;SDS011;29384;42.028;21.388;2022-12-18T12:47:27;12.73;;;8.00;;
42668;SDS011;29384;42.028;21.388;2022-12-18T12:49:53;14.75;;;8.73;;
42668;SDS011;29384;42.028;21.388;2022-12-18T12:55:23;15.40;;;8.88;;
42668;SDS011;29384;42.028;21.388;2022-12-18T13:00:39;17.02;;;8.88;;
42668;SDS011;29384;42.028;21.388;2022-12-18T13:06:19;26.35;;;9.52;;
42668;SDS011;29384;42.028;21.388;2022-12-18T13:08:52;15.45;;;9.93;;
42668;SDS011;29384;42.028;21.388;2022-12-18T13:11:36;17.08;;;9.95;;
42668;SDS011;29384;42.028;21.388;2022-12-18T13:14:24;16.33;;;9.25;;
42668;SDS011;29384;42.028;21.388;2022-12-18T13:16:51;13.80;;;9.45;;
42668;SDS011;29384;42.028;21.388;2022-12-18T13:22:23;16.02;;;9.85;;
42668;SDS011;29384;42.028;21.388;2022-12-18T13:24:48;14.82;;;10.20;;
42668;SDS011;29384;42.028;21.388;2022-12-18T13:29:57;16.92;;;10.13;;
42668;SDS011;29384;42.028;21.388;2022-12-18T13:32:24;17.80;;;9.52;;
42668;SDS011;29384;42.028;21.388;2022-12-18T13:37:53;17.15;;;9.70;;
42668;SDS011;29384;42.028;21.388;2022-12-18T13:43:13;17.27;;;9.13;;
42668;SDS011;29384;42.028;21.388;2022-12-18T13:45:40;26.00;;;9.60;;
42668;SDS011;29384;42.028;21.388;2022-12-18T13:48:13;15.20;;;9.68;;
42668;SDS011;29384;42.028;21.388;2022-12-18T13:50:39;19.07;;;10.87;;
42668;SDS011;29384;42.028;21.388;2022-12-18T13:53:05;15.50;;;9.13;;
42668;SDS011;29384;42.028;21.388;2022-12-18T13:55:30;17.48;;;10.93;;
42668;SDS011;29384;42.028;21.388;2022-12-18T13:58:05;14.90;;;9.50;;
42668;SDS011;29384;42.028;21.388;2022-12-18T14:00:30;17.20;;;10.07;;
42668;SDS011;29384;42.028;21.388;2022-12-18T14:02:56;15.65;;;9.80;;
42668;SDS011;29384;42.028;21.388;2022-12-18T14:08:25;18.63;;;9.63;;
42668;SDS011;29384;42.028;21.388;2022-12-18T14:10:52;20.30;;;11.77;;
42668;SDS011;29384;42.028;21.388;2022-12-18T14:13:23;21.90;;;11.98;;
42668;SDS011;29384;42.028;21.388;2022-12-18T14:15:49;18.48;;;11.88;;
42668;SDS011;29384;42.028;21.388;2022-12-18T14:20:46;22.90;;;11.27;;
42668;SDS011;29384;42.028;21.388;2022-12-18T14:25:55;16.35;;;10.57;;
42668;SDS011;29384;42.028;21.388;2022-12-18T14:28:21;22.48;;;12.43;;
42668;SDS011;29384;42.028;21.388;2022-12-18T14:30:47;24.02;;;12.27;;
42668;SDS011;29384;42.028;21.388;2022-12-18T14:33:18;12.52;;;9.98;;
42668;SDS011;29384;42.028;21.388;2022-12-18T14:39:20;20.35;;;11.27;;
42668;SDS011;29384;42.028;21.388;2022-12-18T14:41:45;18.67;;;11.13;;
42668;SDS011;29384;42.028;21.388;2022-12-18T14:44:13;18.73;;;10.82;;
42668;SDS011;29384;42.028;21.388;2022-12-18T14:46:39;15.13;;;10.13;;
42668;SDS011;29384;42.028;21.388;2022-12-18T14:51:49;20.48;;;11.95;;
42668;SDS011;29384;42.028;21.388;2022-12-18T14:54:16;31.05;;;13.18;;
42668;SDS011;29384;42.028;21.388;2022-12-18T14:56:44;17.65;;;10.93;;
42668;SDS011;29384;42.028;21.388;2022-12-18T14:59:42;21.52;;;12.02;;
42668;SDS011;29384;42.028;21.388;2022-12-18T15:04:44;26.25;;;13.20;;
42668;SDS011;29384;42.028;21.388;2022-12-18T15:07:14;26.75;;;15.90;;
42668;SDS011;29384;42.028;21.388;2022-12-18T15:09:42;22.88;;;12.48;;
42668;SDS011;29384;42.028;21.388;2022-12-18T15:15:41;38.22;;;17.13;;
42668;SDS011;29384;42.028;21.388;2022-12-18T15:17:56;24.15;;;14.95;;
42668;SDS011;29384;42.028;21.388;2022-12-18T15:20:21;24.02;;;13.32;;
42668;SDS011;29384;42.028;21.388;2022-12-18T15:22:47;26.70;;;14.05;;
42668;SDS011;29384;42.028;21.388;2022-12-18T15:25:32;20.90;;;12.75;;
42668;SDS011;29384;42.028;21.388;2022-12-18T15:27:59;18.92;;;12.18;;
42668;SDS011;29384;42.028;21.388;2022-12-18T15:30:24;26.35;;;13.30;;
42668;SDS011;29384;42.028;21.388;2022-12-18T15:32:50;29.25;;;14.80;;
42668;SDS011;29384;42.028;21.388;2022-12-18T15:35:18;42.88;;;19.30;;
42668;SDS011;29384;42.028;21.388;2022-12-18T15:37:43;37.70;;;18.95;;
42668;SDS011;29384;42.028;21.388;2022-12-18T15:40:12;33.75;;;18.45;;
42668;SDS011;29384;42.028;21.388;2022-12-18T15:42:38;39.60;;;19.05;;
42668;SDS011;29384;42.028;21.388;2022-12-18T15:45:24;44.92;;;22.08;;
42668;SDS011;29384;42.028;21.388;2022-12-18T15:47:49;35.55;;;16.33;;
42668;SDS011;29384;42.028;21.388;2022-12-18T15:50:14;37.05;;;18.83;;
42668;SDS011;29384;42.028;21.388;2022-12-18T15:52:43;32.58;;;17.83;;
42668;SDS011;29384;42.028;21.388;2022-12-18T15:55:12;34.50;;;18.48;;
42668;SDS011;29384;42.028;21.388;2022-12-18T15:57:57;27.70;;;15.35;;
42668;SDS011;29384;42.028;21.388;2022-12-18T16:00:22;24.63;;;14.13;;
42668;SDS011;29384;42.028;21.388;2022-12-18T16:02:48;34.92;;;16.98;;
42668;SDS011;29384;42.028;21.388;2022-12-18T16:05:13;35.38;;;17.38;;
42668;SDS011;29384;42.028;21.388;2022-12-18T16:07:39;33.35;;;17.42;;
42668;SDS011;29384;42.028;21.388;2022-12-18T16:10:04;36.30;;;16.55;;
42668;SDS011;29384;42.028;21.388;2022-12-18T16:12:30;27.30;;;16.63;;
42668;SDS011;29384;42.028;21.388;2022-12-18T16:14:55;25.13;;;13.40;;
42668;SDS011;29384;42.028;21.388;2022-12-18T16:17:21;30.73;;;14.40;;
42668;SDS011;29384;42.028;21.388;2022-12-18T16:19:46;38.38;;;16.98;;
42668;SDS011;29384;42.028;21.388;2022-12-18T16:22:19;30.58;;;16.42;;
42668;SDS011;29384;42.028;21.388;2022-12-18T16:24:45;36.30;;;16.13;;
42668;SDS011;29384;42.028;21.388;2022-12-18T16:27:11;77.00;;;35.30;;
42668;SDS011;29384;42.028;21.388;2022-12-18T16:29:36;56.80;;;26.70;;
42668;SDS011;29384;42.028;21.388;2022-12-18T16:32:02;47.72;;;26.63;;
42668;SDS011;29384;42.028;21.388;2022-12-18T16:34:31;33.55;;;19.20;;
42668;SDS011;29384;42.028;21.388;2022-12-18T16:37:00;27.90;;;15.10;;
42668;SDS011;29384;42.028;21.388;2022-12-18T16:39:27;31.73;;;16.35;;
42668;SDS011;29384;42.028;21.388;2022-12-18T16:41:52;28.85;;;15.57;;
42668;SDS011;29384;42.028;21.388;2022-12-18T16:44:18;36.25;;;17.38;;
42668;SDS011;29384;42.028;21.388;2022-12-18T16:46:44;24.20;;;14.57;;
42668;SDS011;29384;42.028;21.388;2022-12-18T16:49:11;21.52;;;12.55;;
42668;SDS011;29384;42.028;21.388;2022-12-18T16:51:38;22.38;;;12.90;;
42668;SDS011;29384;42.028;21.388;2022-12-18T16:54:03;67.80;;;25.83;;
42668;SDS011;29384;42.028;21.388;2022-12-18T16:56:29;56.33;;;24.05;;
42668;SDS011;29384;42.028;21.388;2022-12-18T16:58:56;37.28;;;17.27;;
42668;SDS011;29384;42.028;21.388;2022-12-18T17:01:22;20.73;;;11.10;;
42668;SDS011;29384;42.028;21.388;2022-12-18T17:03:51;20.13;;;13.73;;
42668;SDS011;29384;42.028;21.388;2022-12-18T17:09:20;35.00;;;15.75;;
42668;SDS011;29384;42.028;21.388;2022-12-18T17:11:54;41.72;;;18.65;;
42668;SDS011;29384;42.028;21.388;2022-12-18T17:14:21;43.10;;;18.95;;
42668;SDS011;29384;42.028;21.388;2022-12-18T17:16:46;34.67;;;17.48;;
42668;SDS011;29384;42.028;21.388;2022-12-18T17:19:12;39.25;;;19.80;;
42668;SDS011;29384;42.028;21.388;2022-12-18T17:21:38;33.53;;;17.98;;
42668;SDS011;29384;42.028;21.388;2022-12-18T17:24:04;21.48;;;11.15;;
42668;SDS011;29384;42.028;21.388;2022-12-18T17:26:29;19.08;;;10.60;;
42668;SDS011;29384;42.028;21.388;2022-12-18T17:28:55;18.75;;;11.30;;
42668;SDS011;29384;42.028;21.388;2022-12-18T17:31:21;33.55;;;15.60;;
42668;SDS011;29384;42.028;21.388;2022-12-18T17:33:47;35.25;;;17.33;;
42668;SDS011;29384;42.028;21.388;2022-12-18T17:39:17;16.05;;;9.82;;
42668;SDS011;29384;42.028;21.388;2022-12-18T17:41:43;18.17;;;10.57;;
42668;SDS011;29384;42.028;21.388;2022-12-18T17:44:08;18.48;;;10.27;;
42668;SDS011;29384;42.028;21.388;2022-12-18T17:46:33;24.15;;;13.38;;
42668;SDS011;29384;42.028;21.388;2022-12-18T17:48:59;22.52;;;12.68;;
42668;SDS011;29384;42.028;21.388;2022-12-18T17:54:29;22.38;;;12.65;;
42668;SDS011;29384;42.028;21.388;2022-12-18T17:56:55;26.90;;;12.85;;
42668;SDS011;29384;42.028;21.388;2022-12-18T17:59:21;21.10;;;13.02;;
42668;SDS011;29384;42.028;21.388;2022-12-18T18:01:46;21.35;;;13.35;;
42668;SDS011;29384;42.028;21.388;2022-12-18T18:04:12;31.02;;;15.85;;
42668;SDS011;29384;42.028;21.388;2022-12-18T18:09:40;35.53;;;14.43;;
42668;SDS011;29384;42.028;21.388;2022-12-18T18:12:05;28.67;;;14.77;;
42668;SDS011;29384;42.028;21.388;2022-12-18T18:14:56;24.15;;;11.98;;